sensor_id;sensor_type;location;lat;lon;timestamp;pressure;altitude;pressure_sealevel;temperature;humidity
72721;BME280;60835;50.974;10.322;2023-04-01T00:01:03;93554.84;;;9.62;100.00
72721;BME280;60835;50.974;10.322;2023-04-01T00:03:30;93586.00;;;9.55;100.00
72721;BME280;60835;50.974;10.322;2023-04-01T00:05:57;93590.47;;;9.55;100.00
72721;BME280;60835;50.974;10.322;2023-04-01T00:08:24;93595.47;;;9.56;100.00
72721;BME280;60835;50.974;10.322;2023-04-01T00:10:51;93643.50;;;9.63;100.00
72721;BME280;60835;50.974;10.322;2023-04-01T00:13:21;93680.16;;;9.60;100.00
72721;BME280;60835;50.974;10.322;2023-04-01T00:15:47;93686.47;;;9.64;100.00
72721;BME280;60835;50.974;10.322;2023-04-01T00:18:14;93740.31;;;9.68;100.00
72721;BME280;60835;50.974;10.322;2023-04-01T00:20:45;93725.22;;;9.58;100.00
72721;BME280;60835;50.974;10.322;2023-04-01T00:23:12;93736.34;;;9.60;100.00
72721;BME280;60835;50.974;10.322;2023-04-01T00:25:38;93762.44;;;9.62;100.00
72721;BME280;60835;50.974;10.322;2023-04-01T00:28:05;93768.50;;;9.62;100.00
72721;BME280;60835;50.974;10.322;2023-04-01T00:30:31;93776.94;;;9.64;100.00
72721;BME280;60835;50.974;10.322;2023-04-01T00:32:58;93791.97;;;9.64;100.00
72721;BME280;60835;50.974;10.322;2023-04-01T00:35:24;93800.16;;;9.62;100.00
72721;BME280;60835;50.974;10.322;2023-04-01T00:37:51;93778.28;;;9.62;100.00
72721;BME280;60835;50.974;10.322;2023-04-01T00:40:23;93770.13;;;9.63;100.00
72721;BME280;60835;50.974;10.322;2023-04-01T00:42:50;93774.31;;;9.59;100.00
72721;BME280;60835;50.974;10.322;2023-04-01T00:45:35;93751.88;;;9.57;100.00
72721;BME280;60835;50.974;10.322;2023-04-01T00:48:06;93759.53;;;9.58;100.00
72721;BME280;60835;50.974;10.322;2023-04-01T00:50:34;93756.88;;;9.58;100.00
72721;BME280;60835;50.974;10.322;2023-04-01T00:53:02;93760.06;;;9.60;100.00
72721;BME280;60835;50.974;10.322;2023-04-01T00:55:30;93774.59;;;9.58;100.00
72721;BME280;60835;50.974;10.322;2023-04-01T00:58:00;93791.72;;;9.60;100.00
72721;BME280;60835;50.974;10.322;2023-04-01T01:00:28;93761.59;;;9.31;100.00
72721;BME280;60835;50.974;10.322;2023-04-01T01:02:54;93821.00;;;9.59;100.00
72721;BME280;60835;50.974;10.322;2023-04-01T01:05:23;93825.75;;;9.57;100.00
72721;BME280;60835;50.974;10.322;2023-04-01T01:10:26;93865.59;;;9.60;100.00
72721;BME280;60835;50.974;10.322;2023-04-01T01:13:11;93873.50;;;9.65;100.00
72721;BME280;60835;50.974;10.322;2023-04-01T01:15:45;93892.22;;;9.59;100.00
72721;BME280;60835;50.974;10.322;2023-04-01T01:18:33;93940.50;;;9.64;100.00
72721;BME280;60835;50.974;10.322;2023-04-01T01:36:59;94071.34;;;9.60;100.00
72721;BME280;60835;50.974;10.322;2023-04-01T01:39:30;94036.84;;;9.30;100.00
72721;BME280;60835;50.974;10.322;2023-04-01T01:41:58;94088.47;;;9.58;100.00
72721;BME280;60835;50.974;10.322;2023-04-01T01:44:27;94083.69;;;9.55;100.00
72721;BME280;60835;50.974;10.322;2023-04-01T01:46:55;94075.53;;;9.56;100.00
72721;BME280;60835;50.974;10.322;2023-04-01T01:49:22;94061.75;;;9.49;100.00
72721;BME280;60835;50.974;10.322;2023-04-01T01:51:49;94041.69;;;9.48;100.00
72721;BME280;60835;50.974;10.322;2023-04-01T01:54:17;93992.66;;;9.47;100.00
72721;BME280;60835;50.974;10.322;2023-04-01T01:56:44;93949.88;;;9.40;100.00
72721;BME280;60835;50.974;10.322;2023-04-01T01:59:13;93890.50;;;9.33;100.00
72721;BME280;60835;50.974;10.322;2023-04-01T02:01:42;93864.16;;;9.33;100.00
72721;BME280;60835;50.974;10.322;2023-04-01T02:04:11;93810.34;;;9.24;100.00
72721;BME280;60835;50.974;10.322;2023-04-01T02:06:41;93788.97;;;9.25;100.00
72721;BME280;60835;50.974;10.322;2023-04-01T02:09:09;93731.25;;;9.18;100.00
72721;BME280;60835;50.974;10.322;2023-04-01T02:11:39;93682.72;;;9.14;100.00
72721;BME280;60835;50.974;10.322;2023-04-01T02:14:08;93645.03;;;9.14;100.00
72721;BME280;60835;50.974;10.322;2023-04-01T02:16:44;93615.00;;;9.15;100.00
72721;BME280;60835;50.974;10.322;2023-04-01T02:19:11;93594.41;;;9.12;100.00
72721;BME280;60835;50.974;10.322;2023-04-01T02:21:39;93591.50;;;9.13;100.00
72721;BME280;60835;50.974;10.322;2023-04-01T02:24:09;93593.38;;;9.13;100.00
72721;BME280;60835;50.974;10.322;2023-04-01T02:26:36;93618.16;;;9.17;100.00
72721;BME280;60835;50.974;10.322;2023-04-01T02:29:03;93623.94;;;9.14;100.00
72721;BME280;60835;50.974;10.322;2023-04-01T02:31:31;93584.38;;;8.94;100.00
72721;BME280;60835;50.974;10.322;2023-04-01T02:33:58;93592.59;;;9.07;100.00
72721;BME280;60835;50.974;10.322;2023-04-01T02:36:25;93572.81;;;9.05;100.00
72721;BME280;60835;50.974;10.322;2023-04-01T02:38:51;93571.75;;;9.11;100.00
72721;BME280;60835;50.974;10.322;2023-04-01T02:41:22;93574.66;;;9.09;100.00
72721;BME280;60835;50.974;10.322;2023-04-01T02:43:50;93561.19;;;9.01;100.00
72721;BME280;60835;50.974;10.322;2023-04-01T02:46:17;93567.78;;;9.08;100.00
72721;BME280;60835;50.974;10.322;2023-04-01T02:48:43;93585.72;;;9.06;100.00
72721;BME280;60835;50.974;10.322;2023-04-01T02:51:09;93586.78;;;9.10;100.00
72721;BME280;60835;50.974;10.322;2023-04-01T02:53:36;93600.72;;;9.06;100.00
72721;BME280;60835;50.974;10.322;2023-04-01T02:56:02;93620.78;;;9.07;100.00
72721;BME280;60835;50.974;10.322;2023-04-01T02:58:28;93633.16;;;9.06;100.00
72721;BME280;60835;50.974;10.322;2023-04-01T03:00:55;93654.53;;;9.15;100.00
72721;BME280;60835;50.974;10.322;2023-04-01T03:03:21;93688.78;;;9.15;100.00
72721;BME280;60835;50.974;10.322;2023-04-01T03:05:48;93728.84;;;9.17;100.00
72721;BME280;60835;50.974;10.322;2023-04-01T03:08:15;93731.47;;;9.12;100.00
72721;BME280;60835;50.974;10.322;2023-04-01T03:10:41;93735.72;;;9.18;100.00
72721;BME280;60835;50.974;10.322;2023-04-01T03:13:07;93786.31;;;9.15;100.00
72721;BME280;60835;50.974;10.322;2023-04-01T03:15:34;93825.56;;;9.16;100.00
72721;BME280;60835;50.974;10.322;2023-04-01T03:18:00;93825.06;;;9.14;100.00
72721;BME280;60835;50.974;10.322;2023-04-01T03:20:28;93834.25;;;9.12;100.00
72721;BME280;60835;50.974;10.322;2023-04-01T03:22:56;93872.78;;;9.18;100.00
72721;BME280;60835;50.974;10.322;2023-04-01T03:25:22;93874.88;;;9.16;100.00
72721;BME280;60835;50.974;10.322;2023-04-01T03:27:49;93870.63;;;9.10;100.00
72721;BME280;60835;50.974;10.322;2023-04-01T03:30:15;93869.56;;;9.11;100.00
72721;BME280;60835;50.974;10.322;2023-04-01T03:32:42;93887.50;;;9.14;100.00
72721;BME280;60835;50.974;10.322;2023-04-01T03:35:08;93906.50;;;9.16;100.00
72721;BME280;60835;50.974;10.322;2023-04-01T03:37:36;93886.59;;;8.93;100.00
72721;BME280;60835;50.974;10.322;2023-04-01T03:40:03;93941.84;;;9.20;100.00
72721;BME280;60835;50.974;10.322;2023-04-01T03:42:30;93934.44;;;9.17;100.00
72721;BME280;60835;50.974;10.322;2023-04-01T03:44:57;93919.53;;;8.91;100.00
72721;BME280;60835;50.974;10.322;2023-04-01T03:47:24;93940.59;;;8.91;100.00
72721;BME280;60835;50.974;10.322;2023-04-01T03:49:50;93999.81;;;9.15;100.00
72721;BME280;60835;50.974;10.322;2023-04-01T03:52:17;93977.63;;;9.11;100.00
72721;BME280;60835;50.974;10.322;2023-04-01T03:54:43;93989.78;;;9.12;100.00
72721;BME280;60835;50.974;10.322;2023-04-01T03:57:10;93983.94;;;9.05;100.00
72721;BME280;60835;50.974;10.322;2023-04-01T03:59:37;93977.59;;;9.06;100.00
72721;BME280;60835;50.974;10.322;2023-04-01T04:02:03;94023.84;;;9.18;100.00
72721;BME280;60835;50.974;10.322;2023-04-01T04:04:30;94070.94;;;9.10;100.00
72721;BME280;60835;50.974;10.322;2023-04-01T04:06:58;94069.16;;;9.15;100.00
72721;BME280;60835;50.974;10.322;2023-04-01T04:09:25;94069.66;;;9.12;100.00
72721;BME280;60835;50.974;10.322;2023-04-01T04:11:51;94101.88;;;9.19;100.00
72721;BME280;60835;50.974;10.322;2023-04-01T04:14:18;94077.56;;;9.12;100.00
72721;BME280;60835;50.974;10.322;2023-04-01T04:16:44;94074.13;;;9.12;100.00
72721;BME280;60835;50.974;10.322;2023-04-01T04:19:11;94100.00;;;9.15;100.00
72721;BME280;60835;50.974;10.322;2023-04-01T04:21:37;94117.34;;;9.11;100.00
72721;BME280;60835;50.974;10.322;2023-04-01T04:24:07;94138.41;;;9.11;100.00
72721;BME280;60835;50.974;10.322;2023-04-01T04:26:33;94135.69;;;9.01;100.00
72721;BME280;60835;50.974;10.322;2023-04-01T04:29:00;94189.63;;;9.15;100.00
72721;BME280;60835;50.974;10.322;2023-04-01T04:31:27;94192.47;;;9.13;100.00
72721;BME280;60835;50.974;10.322;2023-04-01T04:33:54;94191.72;;;9.13;100.00
72721;BME280;60835;50.974;10.322;2023-04-01T04:36:21;94161.06;;;9.07;100.00
72721;BME280;60835;50.974;10.322;2023-04-01T04:38:48;94139.97;;;9.07;100.00
72721;BME280;60835;50.974;10.322;2023-04-01T04:41:17;94125.47;;;9.04;100.00
72721;BME280;60835;50.974;10.322;2023-04-01T04:43:53;94105.16;;;9.05;100.00
72721;BME280;60835;50.974;10.322;2023-04-01T04:46:20;94107.25;;;9.03;100.00
72721;BME280;60835;50.974;10.322;2023-04-01T04:48:46;94048.69;;;8.96;100.00
72721;BME280;60835;50.974;10.322;2023-04-01T04:51:14;94057.72;;;9.05;100.00
72721;BME280;60835;50.974;10.322;2023-04-01T04:53:41;94041.88;;;9.00;100.00
72721;BME280;60835;50.974;10.322;2023-04-01T04:56:20;94072.16;;;8.97;100.00
72721;BME280;60835;50.974;10.322;2023-04-01T04:58:48;94081.91;;;8.97;100.00
72721;BME280;60835;50.974;10.322;2023-04-01T05:01:15;94093.53;;;9.01;100.00
72721;BME280;60835;50.974;10.322;2023-04-01T05:03:42;94132.50;;;8.99;100.00
72721;BME280;60835;50.974;10.322;2023-04-01T05:06:09;94163.03;;;8.95;100.00
72721;BME280;60835;50.974;10.322;2023-04-01T05:08:40;94151.22;;;8.97;100.00
72721;BME280;60835;50.974;10.322;2023-04-01T05:11:17;94182.84;;;8.97;100.00
72721;BME280;60835;50.974;10.322;2023-04-01T05:13:47;94174.63;;;8.94;100.00
72721;BME280;60835;50.974;10.322;2023-04-01T05:16:15;94166.25;;;8.97;100.00
72721;BME280;60835;50.974;10.322;2023-04-01T05:18:42;94190.00;;;9.02;100.00
72721;BME280;60835;50.974;10.322;2023-04-01T05:21:09;94214.59;;;9.07;100.00
72721;BME280;60835;50.974;10.322;2023-04-01T05:23:36;94264.72;;;9.12;100.00
72721;BME280;60835;50.974;10.322;2023-04-01T05:26:04;94273.66;;;9.11;100.00
72721;BME280;60835;50.974;10.322;2023-04-01T05:28:30;94306.41;;;9.15;100.00
72721;BME280;60835;50.974;10.322;2023-04-01T05:30:58;94310.41;;;9.18;100.00
72721;BME280;60835;50.974;10.322;2023-04-01T05:33:25;94308.03;;;9.22;100.00
72721;BME280;60835;50.974;10.322;2023-04-01T05:35:51;94322.56;;;9.24;100.00
72721;BME280;60835;50.974;10.322;2023-04-01T05:38:22;94339.13;;;9.19;100.00
72721;BME280;60835;50.974;10.322;2023-04-01T05:40:48;94359.75;;;9.23;100.00
72721;BME280;60835;50.974;10.322;2023-04-01T05:43:16;94349.19;;;9.23;100.00
72721;BME280;60835;50.974;10.322;2023-04-01T05:45:42;94354.78;;;9.26;100.00
72721;BME280;60835;50.974;10.322;2023-04-01T05:48:08;94402.47;;;9.25;100.00
72721;BME280;60835;50.974;10.322;2023-04-01T05:50:35;94405.13;;;9.25;100.00
72721;BME280;60835;50.974;10.322;2023-04-01T05:53:01;94398.06;;;9.30;100.00
72721;BME280;60835;50.974;10.322;2023-04-01T05:55:27;94421.81;;;9.30;100.00
72721;BME280;60835;50.974;10.322;2023-04-01T05:57:54;94445.84;;;9.34;100.00
72721;BME280;60835;50.974;10.322;2023-04-01T06:00:23;94469.34;;;9.35;100.00
72721;BME280;60835;50.974;10.322;2023-04-01T06:02:50;94474.69;;;9.40;100.00
72721;BME280;60835;50.974;10.322;2023-04-01T06:05:22;94483.06;;;9.37;100.00
72721;BME280;60835;50.974;10.322;2023-04-01T06:07:59;94502.19;;;9.44;100.00
72721;BME280;60835;50.974;10.322;2023-04-01T06:23:56;94537.50;;;9.43;100.00
72721;BME280;60835;50.974;10.322;2023-04-01T06:34:19;94545.81;;;9.52;100.00
72721;BME280;60835;50.974;10.322;2023-04-01T06:36:53;94541.56;;;9.51;100.00
72721;BME280;60835;50.974;10.322;2023-04-01T06:50:12;94547.31;;;9.64;100.00
72721;BME280;60835;50.974;10.322;2023-04-01T06:53:00;94574.16;;;9.61;100.00
72721;BME280;60835;50.974;10.322;2023-04-01T06:57:59;94558.50;;;9.71;100.00
72721;BME280;60835;50.974;10.322;2023-04-01T07:00:31;94536.59;;;9.71;100.00
72721;BME280;60835;50.974;10.322;2023-04-01T07:03:47;94551.00;;;9.63;100.00
72721;BME280;60835;50.974;10.322;2023-04-01T07:05:46;94526.50;;;9.85;100.00
72721;BME280;60835;50.974;10.322;2023-04-01T07:08:17;94561.84;;;9.84;100.00
72721;BME280;60835;50.974;10.322;2023-04-01T07:10:54;94576.13;;;9.88;100.00
72721;BME280;60835;50.974;10.322;2023-04-01T07:13:28;94585.16;;;10.08;100.00
72721;BME280;60835;50.974;10.322;2023-04-01T07:16:39;94610.19;;;10.06;100.00
72721;BME280;60835;50.974;10.322;2023-04-01T07:18:50;94575.09;;;9.89;100.00
72721;BME280;60835;50.974;10.322;2023-04-01T07:23:47;94487.75;;;9.90;100.00
72721;BME280;60835;50.974;10.322;2023-04-01T07:26:19;94439.19;;;9.91;100.00
72721;BME280;60835;50.974;10.322;2023-04-01T07:28:47;94450.72;;;10.07;100.00
72721;BME280;60835;50.974;10.322;2023-04-01T07:31:37;94414.06;;;10.32;100.00
72721;BME280;60835;50.974;10.322;2023-04-01T07:44:54;94463.50;;;10.15;100.00
72721;BME280;60835;50.974;10.322;2023-04-01T08:03:09;94497.25;;;10.56;100.00
72721;BME280;60835;50.974;10.322;2023-04-01T08:05:51;94486.88;;;10.50;100.00
72721;BME280;60835;50.974;10.322;2023-04-01T08:11:31;94419.97;;;10.44;100.00
72721;BME280;60835;50.974;10.322;2023-04-01T08:14:16;94429.44;;;10.13;100.00
72721;BME280;60835;50.974;10.322;2023-04-01T08:22:16;94275.66;;;10.33;100.00
72721;BME280;60835;50.974;10.322;2023-04-01T08:24:47;94295.41;;;10.25;100.00
72721;BME280;60835;50.974;10.322;2023-04-01T08:27:18;94277.72;;;10.26;100.00
72721;BME280;60835;50.974;10.322;2023-04-01T08:32:26;94285.94;;;10.03;100.00
72721;BME280;60835;50.974;10.322;2023-04-01T08:34:58;94288.88;;;10.06;100.00
72721;BME280;60835;50.974;10.322;2023-04-01T08:37:31;94279.09;;;10.07;100.00
72721;BME280;60835;50.974;10.322;2023-04-01T08:40:13;94277.16;;;10.19;100.00
72721;BME280;60835;50.974;10.322;2023-04-01T08:47:58;94274.91;;;10.06;100.00
72721;BME280;60835;50.974;10.322;2023-04-01T08:58:54;94277.00;;;10.09;100.00
72721;BME280;60835;50.974;10.322;2023-04-01T09:01:37;94269.88;;;10.36;100.00
72721;BME280;60835;50.974;10.322;2023-04-01T09:04:24;94297.66;;;10.44;100.00
72721;BME280;60835;50.974;10.322;2023-04-01T09:06:56;94329.50;;;10.27;100.00
72721;BME280;60835;50.974;10.322;2023-04-01T09:22:46;94528.91;;;11.10;100.00
72721;BME280;60835;50.974;10.322;2023-04-01T09:25:30;94642.97;;;10.91;100.00
72721;BME280;60835;50.974;10.322;2023-04-01T09:28:18;94744.94;;;10.82;100.00
72721;BME280;60835;50.974;10.322;2023-04-01T09:38:35;94847.31;;;10.87;100.00
72721;BME280;60835;50.974;10.322;2023-04-01T09:48:50;95062.84;;;11.23;100.00
72721;BME280;60835;50.974;10.322;2023-04-01T09:57:04;95110.75;;;11.38;100.00
72721;BME280;60835;50.974;10.322;2023-04-01T10:57:15;94850.06;;;11.57;100.00
72721;BME280;60835;50.974;10.322;2023-04-01T11:08:25;94958.84;;;11.72;100.00
72721;BME280;60835;50.974;10.322;2023-04-01T11:13:58;94894.75;;;11.32;100.00
72721;BME280;60835;50.974;10.322;2023-04-01T11:27:09;94658.94;;;11.55;100.00
72721;BME280;60835;50.974;10.322;2023-04-01T11:32:32;94807.53;;;11.42;100.00
72721;BME280;60835;50.974;10.322;2023-04-01T11:38:07;94895.84;;;11.74;100.00
72721;BME280;60835;50.974;10.322;2023-04-01T11:46:15;94982.25;;;11.47;100.00
72721;BME280;60835;50.974;10.322;2023-04-01T11:51:29;94819.09;;;11.79;100.00
72721;BME280;60835;50.974;10.322;2023-04-01T12:02:20;94656.63;;;11.90;100.00
72721;BME280;60835;50.974;10.322;2023-04-01T12:10:18;94604.72;;;11.94;100.00
72721;BME280;60835;50.974;10.322;2023-04-01T12:17:57;94590.97;;;11.92;100.00
72721;BME280;60835;50.974;10.322;2023-04-01T12:23:15;94624.94;;;12.05;100.00
72721;BME280;60835;50.974;10.322;2023-04-01T12:31:06;94624.22;;;12.67;100.00
72721;BME280;60835;50.974;10.322;2023-04-01T12:36:42;94797.81;;;12.23;100.00
72721;BME280;60835;50.974;10.322;2023-04-01T12:39:20;94781.13;;;12.59;100.00
72721;BME280;60835;50.974;10.322;2023-04-01T12:41:53;94950.75;;;12.05;100.00
72721;BME280;60835;50.974;10.322;2023-04-01T12:44:29;94939.88;;;12.29;100.00
72721;BME280;60835;50.974;10.322;2023-04-01T12:52:18;95121.03;;;11.84;100.00
72721;BME280;60835;50.974;10.322;2023-04-01T12:54:56;95046.53;;;11.97;100.00
72721;BME280;60835;50.974;10.322;2023-04-01T13:00:25;95190.94;;;12.16;100.00
72721;BME280;60835;50.974;10.322;2023-04-01T13:03:03;95209.41;;;11.95;100.00
72721;BME280;60835;50.974;10.322;2023-04-01T13:05:42;95203.47;;;12.04;100.00
72721;BME280;60835;50.974;10.322;2023-04-01T13:10:51;95259.97;;;12.10;100.00
72721;BME280;60835;50.974;10.322;2023-04-01T13:18:39;95134.69;;;11.76;100.00
72721;BME280;60835;50.974;10.322;2023-04-01T13:23:49;94857.09;;;11.90;100.00
72721;BME280;60835;50.974;10.322;2023-04-01T13:34:23;94073.03;;;11.76;100.00
72721;BME280;60835;50.974;10.322;2023-04-01T14:05:35;94340.25;;;11.41;100.00
72721;BME280;60835;50.974;10.322;2023-04-01T14:08:17;94226.78;;;11.54;100.00
72721;BME280;60835;50.974;10.322;2023-04-01T14:23:56;94096.84;;;11.51;100.00
72721;BME280;60835;50.974;10.322;2023-04-01T14:44:04;93915.56;;;11.74;100.00
72721;BME280;60835;50.974;10.322;2023-04-01T14:46:53;93902.03;;;11.65;100.00
72721;BME280;60835;50.974;10.322;2023-04-01T14:49:32;93889.88;;;11.74;100.00
72721;BME280;60835;50.974;10.322;2023-04-01T14:52:06;93857.50;;;11.92;100.00
72721;BME280;60835;50.974;10.322;2023-04-01T14:54:36;93883.81;;;11.63;100.00
72721;BME280;60835;50.974;10.322;2023-04-01T15:00:19;93732.22;;;11.53;100.00
72721;BME280;60835;50.974;10.322;2023-04-01T15:05:23;93645.63;;;11.30;100.00
72721;BME280;60835;50.974;10.322;2023-04-01T15:08:05;93630.38;;;11.17;100.00
72721;BME280;60835;50.974;10.322;2023-04-01T15:13:24;93556.13;;;11.42;100.00
72721;BME280;60835;50.974;10.322;2023-04-01T15:29:11;93453.44;;;11.49;100.00
72721;BME280;60835;50.974;10.322;2023-04-01T15:31:54;93396.09;;;11.63;100.00
72721;BME280;60835;50.974;10.322;2023-04-01T15:37:15;93341.09;;;11.60;100.00
72721;BME280;60835;50.974;10.322;2023-04-01T15:39:52;93351.75;;;11.55;100.00
72721;BME280;60835;50.974;10.322;2023-04-01T15:47:27;93302.13;;;11.47;100.00
72721;BME280;60835;50.974;10.322;2023-04-01T15:52:49;93383.69;;;11.40;100.00
72721;BME280;60835;50.974;10.322;2023-04-01T16:00:25;93365.78;;;11.32;100.00
72721;BME280;60835;50.974;10.322;2023-04-01T16:02:58;93297.28;;;11.54;100.00
72721;BME280;60835;50.974;10.322;2023-04-01T16:05:42;93273.97;;;11.56;100.00
72721;BME280;60835;50.974;10.322;2023-04-01T16:18:20;93293.59;;;11.08;100.00
72721;BME280;60835;50.974;10.322;2023-04-01T16:20:53;93209.72;;;11.13;100.00
72721;BME280;60835;50.974;10.322;2023-04-01T16:23:26;93134.50;;;11.06;100.00
72721;BME280;60835;50.974;10.322;2023-04-01T16:25:59;93056.63;;;10.98;100.00
72721;BME280;60835;50.974;10.322;2023-04-01T16:31:25;92968.22;;;10.90;100.00
72721;BME280;60835;50.974;10.322;2023-04-01T16:33:56;92918.41;;;10.97;100.00
72721;BME280;60835;50.974;10.322;2023-04-01T16:41:47;92860.09;;;10.75;100.00
72721;BME280;60835;50.974;10.322;2023-04-01T16:44:24;92810.47;;;10.72;100.00
72721;BME280;60835;50.974;10.322;2023-04-01T16:46:55;92737.72;;;10.66;100.00
72721;BME280;60835;50.974;10.322;2023-04-01T16:57:25;92742.28;;;10.47;100.00
72721;BME280;60835;50.974;10.322;2023-04-01T17:02:31;92720.09;;;10.48;100.00
72721;BME280;60835;50.974;10.322;2023-04-01T17:05:04;92659.81;;;10.23;100.00
72721;BME280;60835;50.974;10.322;2023-04-01T17:07:54;92646.44;;;10.47;100.00
72721;BME280;60835;50.974;10.322;2023-04-01T17:13:08;92570.75;;;10.42;100.00
72721;BME280;60835;50.974;10.322;2023-04-01T17:23:37;92503.97;;;10.28;100.00
72721;BME280;60835;50.974;10.322;2023-04-01T17:33:48;92493.63;;;10.18;100.00
72721;BME280;60835;50.974;10.322;2023-04-01T17:39:16;92439.47;;;9.79;100.00
72721;BME280;60835;50.974;10.322;2023-04-01T17:41:48;92486.97;;;10.07;100.00
72721;BME280;60835;50.974;10.322;2023-04-01T17:44:27;92490.19;;;10.04;100.00
72721;BME280;60835;50.974;10.322;2023-04-01T17:49:56;92470.56;;;9.96;100.00
72721;BME280;60835;50.974;10.322;2023-04-01T17:55:18;92440.25;;;9.94;100.00
72721;BME280;60835;50.974;10.322;2023-04-01T17:57:54;92416.03;;;9.92;100.00
72721;BME280;60835;50.974;10.322;2023-04-01T18:00:26;92409.19;;;9.91;100.00
72721;BME280;60835;50.974;10.322;2023-04-01T18:05:52;92350.38;;;9.90;100.00
72721;BME280;60835;50.974;10.322;2023-04-01T18:08:26;92318.06;;;9.85;100.00
72721;BME280;60835;50.974;10.322;2023-04-01T18:16:09;92182.00;;;9.84;100.00
72721;BME280;60835;50.974;10.322;2023-04-01T18:21:09;92082.38;;;9.80;100.00
72721;BME280;60835;50.974;10.322;2023-04-01T18:23:53;92036.63;;;9.85;100.00
72721;BME280;60835;50.974;10.322;2023-04-01T18:26:29;91997.78;;;9.77;100.00
72721;BME280;60835;50.974;10.322;2023-04-01T18:31:49;91914.22;;;9.86;100.00
72721;BME280;60835;50.974;10.322;2023-04-01T18:36:55;91845.97;;;9.85;100.00
72721;BME280;60835;50.974;10.322;2023-04-01T18:39:41;91846.88;;;9.80;100.00
72721;BME280;60835;50.974;10.322;2023-04-01T18:49:43;91716.25;;;9.82;100.00
72721;BME280;60835;50.974;10.322;2023-04-01T18:55:14;91657.50;;;9.82;100.00
72721;BME280;60835;50.974;10.322;2023-04-01T18:57:25;91635.47;;;9.78;100.00
72721;BME280;60835;50.974;10.322;2023-04-01T19:00:03;91609.09;;;9.78;100.00
72721;BME280;60835;50.974;10.322;2023-04-01T19:02:40;91592.94;;;9.79;100.00
72721;BME280;60835;50.974;10.322;2023-04-01T19:07:41;91554.16;;;9.80;100.00
72721;BME280;60835;50.974;10.322;2023-04-01T19:10:52;91551.84;;;9.78;100.00
72721;BME280;60835;50.974;10.322;2023-04-01T19:23:40;91521.47;;;9.72;100.00
72721;BME280;60835;50.974;10.322;2023-04-01T19:26:20;91514.66;;;9.71;100.00
72721;BME280;60835;50.974;10.322;2023-04-01T19:31:59;91506.28;;;9.69;100.00
72721;BME280;60835;50.974;10.322;2023-04-01T19:34:42;91492.03;;;9.70;100.00
72721;BME280;60835;50.974;10.322;2023-04-01T19:37:20;91489.06;;;9.72;100.00
72721;BME280;60835;50.974;10.322;2023-04-01T19:39:54;91486.59;;;9.67;100.00
72721;BME280;60835;50.974;10.322;2023-04-01T19:42:32;91476.19;;;9.70;100.00
72721;BME280;60835;50.974;10.322;2023-04-01T19:52:42;91417.44;;;9.70;100.00
72721;BME280;60835;50.974;10.322;2023-04-01T20:00:49;91372.31;;;9.71;100.00
72721;BME280;60835;50.974;10.322;2023-04-01T20:08:56;91367.66;;;9.68;100.00
72721;BME280;60835;50.974;10.322;2023-04-01T20:14:08;91368.31;;;9.65;100.00
72721;BME280;60835;50.974;10.322;2023-04-01T20:16:48;91324.19;;;9.74;100.00
72721;BME280;60835;50.974;10.322;2023-04-01T20:25:01;91227.84;;;9.77;100.00
72721;BME280;60835;50.974;10.322;2023-04-01T20:27:33;91206.00;;;9.76;100.00
72721;BME280;60835;50.974;10.322;2023-04-01T20:33:10;91050.03;;;9.87;100.00
72721;BME280;60835;50.974;10.322;2023-04-01T20:41:40;90829.44;;;9.78;100.00
72721;BME280;60835;50.974;10.322;2023-04-01T20:43:50;90795.19;;;9.66;100.00
72721;BME280;60835;50.974;10.322;2023-04-01T20:46:27;90746.00;;;9.70;100.00
72721;BME280;60835;50.974;10.322;2023-04-01T20:51:29;90567.91;;;8.86;100.00
72721;BME280;60835;50.974;10.322;2023-04-01T21:07:49;90782.72;;;9.51;100.00
72721;BME280;60835;50.974;10.322;2023-04-01T21:20:30;90826.97;;;9.46;100.00
72721;BME280;60835;50.974;10.322;2023-04-01T21:26:06;90830.28;;;9.31;100.00
72721;BME280;60835;50.974;10.322;2023-04-01T21:39:15;90890.75;;;9.27;100.00
72721;BME280;60835;50.974;10.322;2023-04-01T22:02:24;91186.38;;;9.12;100.00
72721;BME280;60835;50.974;10.322;2023-04-01T22:13:35;91298.25;;;9.06;100.00
72721;BME280;60835;50.974;10.322;2023-04-01T22:18:19;91298.06;;;9.11;100.00
72721;BME280;60835;50.974;10.322;2023-04-01T22:20:50;91291.84;;;9.15;100.00
72721;BME280;60835;50.974;10.322;2023-04-01T22:28:29;91312.78;;;9.12;100.00
72721;BME280;60835;50.974;10.322;2023-04-01T22:31:01;91332.81;;;9.04;100.00
72721;BME280;60835;50.974;10.322;2023-04-01T22:38:53;91294.78;;;9.14;100.00
72721;BME280;60835;50.974;10.322;2023-04-01T22:43:54;91293.91;;;9.10;100.00
72721;BME280;60835;50.974;10.322;2023-04-01T22:46:44;91253.25;;;9.19;100.00
72721;BME280;60835;50.974;10.322;2023-04-01T22:49:15;91259.66;;;9.10;100.00
72721;BME280;60835;50.974;10.322;2023-04-01T22:54:27;91261.25;;;9.02;100.00
72721;BME280;60835;50.974;10.322;2023-04-01T22:56:57;91318.19;;;8.78;100.00
72721;BME280;60835;50.974;10.322;2023-04-01T23:00:00;91360.50;;;8.64;100.00
72721;BME280;60835;50.974;10.322;2023-04-01T23:02:28;91459.59;;;8.34;100.00
72721;BME280;60835;50.974;10.322;2023-04-01T23:04:57;91517.44;;;8.26;100.00
72721;BME280;60835;50.974;10.322;2023-04-01T23:07:34;91579.44;;;8.10;100.00
72721;BME280;60835;50.974;10.322;2023-04-01T23:10:18;91626.41;;;7.94;100.00
72721;BME280;60835;50.974;10.322;2023-04-01T23:12:47;91688.44;;;7.73;100.00
72721;BME280;60835;50.974;10.322;2023-04-01T23:15:15;91688.44;;;7.73;100.00
72721;BME280;60835;50.974;10.322;2023-04-01T23:20:30;91755.38;;;7.53;100.00
72721;BME280;60835;50.974;10.322;2023-04-01T23:23:46;91777.28;;;7.49;100.00